createdAt,value
2017-12-25T00:00:34.154Z,8.44
2017-12-25T00:01:35.087Z,8.37
2017-12-25T00:02:34.110Z,8.41
2017-12-25T00:03:34.091Z,8.44
2017-12-25T00:04:34.068Z,8.42
2017-12-25T00:05:34.047Z,8.41
2017-12-25T00:06:34.024Z,8.42
2017-12-25T00:07:34.004Z,8.44
2017-12-25T00:08:33.983Z,8.46
2017-12-25T00:09:33.961Z,8.52
2017-12-25T00:10:33.942Z,8.51
2017-12-25T00:11:33.918Z,8.48
2017-12-25T00:12:33.896Z,8.53
2017-12-25T00:13:33.875Z,8.52
2017-12-25T00:14:33.853Z,8.49
2017-12-25T00:15:33.831Z,8.42
2017-12-25T00:16:33.811Z,8.45
2017-12-25T00:17:33.788Z,8.55
2017-12-25T00:18:33.767Z,8.48
2017-12-25T00:19:33.745Z,8.44
2017-12-25T00:20:33.724Z,8.48
2017-12-25T00:21:33.702Z,8.46
2017-12-25T00:22:33.680Z,8.44
2017-12-25T00:23:33.660Z,8.38
2017-12-25T00:24:33.636Z,8.44
2017-12-25T00:25:33.616Z,8.46
2017-12-25T00:26:33.594Z,8.44
2017-12-25T00:27:33.573Z,8.41
2017-12-25T00:28:33.553Z,8.41
2017-12-25T00:29:33.530Z,8.36
2017-12-25T00:30:33.507Z,8.37
2017-12-25T00:31:33.485Z,8.42
2017-12-25T00:32:33.463Z,8.37
2017-12-25T00:33:33.444Z,8.42
2017-12-25T00:34:33.421Z,8.34
2017-12-25T00:35:33.398Z,8.36
2017-12-25T00:36:33.377Z,8.33
2017-12-25T00:37:33.355Z,8.33
2017-12-25T00:38:33.333Z,8.31
2017-12-25T00:39:33.311Z,8.31
2017-12-25T00:40:33.291Z,8.23
2017-12-25T00:41:33.269Z,8.28
2017-12-25T00:42:33.245Z,8.33
2017-12-25T00:43:33.225Z,8.34
2017-12-25T00:44:33.204Z,8.30
2017-12-25T00:45:33.182Z,8.31
2017-12-25T00:46:33.160Z,8.34
2017-12-25T00:47:33.139Z,8.36
2017-12-25T00:48:33.116Z,8.27
2017-12-25T00:49:33.096Z,8.27
2017-12-25T00:50:33.073Z,8.36
2017-12-25T00:51:33.051Z,8.36
2017-12-25T00:52:33.030Z,8.38
2017-12-25T00:53:33.110Z,8.36
2017-12-25T00:54:32.986Z,8.42
2017-12-25T00:55:32.964Z,8.41
2017-12-25T00:56:32.941Z,8.38
2017-12-25T00:57:32.920Z,8.37
2017-12-25T00:58:33.048Z,8.37
2017-12-25T00:59:32.876Z,8.34
2017-12-25T01:00:32.854Z,8.33
2017-12-25T01:01:32.833Z,8.41
2017-12-25T01:02:32.811Z,8.31
2017-12-25T01:03:33.041Z,8.41
2017-12-25T01:04:32.769Z,8.44
2017-12-25T01:05:32.746Z,8.48
2017-12-25T01:06:32.724Z,8.44
2017-12-25T01:07:32.707Z,8.34
2017-12-25T01:08:33.481Z,8.36
2017-12-25T01:09:32.662Z,8.33
2017-12-25T01:10:32.637Z,8.31
2017-12-25T01:11:32.617Z,8.33
2017-12-25T01:12:32.595Z,8.33
2017-12-25T01:13:32.574Z,8.44
2017-12-25T01:14:32.552Z,8.44
2017-12-25T01:15:32.530Z,8.42
2017-12-25T01:16:32.509Z,8.44
2017-12-25T01:17:32.488Z,8.31
2017-12-25T01:18:32.466Z,8.41
2017-12-25T01:19:32.443Z,8.34
2017-12-25T01:20:32.673Z,8.36
2017-12-25T01:21:32.401Z,8.34
2017-12-25T01:22:32.378Z,8.31
2017-12-25T01:23:32.357Z,8.33
2017-12-25T01:24:32.335Z,8.36
2017-12-25T01:25:32.315Z,8.42
2017-12-25T01:26:32.292Z,8.38
2017-12-25T01:27:32.271Z,8.48
2017-12-25T01:28:32.249Z,8.42
2017-12-25T01:29:32.228Z,8.38
2017-12-25T01:30:32.205Z,8.46
2017-12-25T01:31:32.334Z,8.44
2017-12-25T01:32:32.162Z,8.44
2017-12-25T01:33:32.141Z,8.36
2017-12-25T01:34:32.119Z,8.44
2017-12-25T01:35:32.097Z,8.31
2017-12-25T01:36:32.328Z,8.38
2017-12-25T01:37:32.055Z,8.38
2017-12-25T01:38:32.031Z,8.42
2017-12-25T01:39:32.011Z,8.44
2017-12-25T01:40:31.990Z,8.42
2017-12-25T01:41:31.968Z,8.36
2017-12-25T01:42:31.946Z,8.31
2017-12-25T01:43:31.925Z,8.36
2017-12-25T01:44:31.902Z,8.37
2017-12-25T01:45:31.882Z,8.34
2017-12-25T01:46:31.858Z,8.34
2017-12-25T01:47:31.988Z,8.38
2017-12-25T01:48:31.820Z,8.31
2017-12-25T01:49:31.795Z,8.37
2017-12-25T01:50:31.773Z,8.36
2017-12-25T01:51:31.751Z,8.34
2017-12-25T01:52:31.730Z,8.36
2017-12-25T01:53:31.708Z,8.30
2017-12-25T01:54:31.687Z,8.41
2017-12-25T01:55:31.664Z,8.28
2017-12-25T01:56:31.643Z,8.41
2017-12-25T01:57:31.622Z,8.33
2017-12-25T01:58:31.600Z,8.34
2017-12-25T01:59:31.579Z,8.34
2017-12-25T02:00:31.558Z,8.26
2017-12-25T02:01:31.536Z,8.36
2017-12-25T02:02:31.514Z,8.37
2017-12-25T02:03:31.492Z,8.34
2017-12-25T02:04:31.470Z,8.20
2017-12-25T02:05:31.449Z,8.28
2017-12-25T02:06:31.426Z,8.30
2017-12-25T02:07:31.407Z,8.31
2017-12-25T02:08:31.383Z,8.36
2017-12-25T02:09:31.361Z,8.26
2017-12-25T02:10:31.342Z,8.31
2017-12-25T02:11:31.317Z,8.30
2017-12-25T02:12:31.297Z,8.30
2017-12-25T02:13:31.275Z,8.23
2017-12-25T02:14:31.252Z,8.31
2017-12-25T02:15:31.232Z,8.30
2017-12-25T02:16:31.210Z,8.37
2017-12-25T02:17:31.189Z,8.31
2017-12-25T02:18:31.165Z,8.34
2017-12-25T02:19:31.145Z,8.31
2017-12-25T02:20:31.122Z,8.34
2017-12-25T02:21:31.201Z,8.31
2017-12-25T02:22:31.079Z,8.38
2017-12-25T02:23:31.057Z,8.33
2017-12-25T02:24:31.035Z,8.36
2017-12-25T02:25:31.014Z,8.31
2017-12-25T02:26:30.994Z,8.33
2017-12-25T02:27:30.972Z,8.37
2017-12-25T02:28:30.950Z,8.27
2017-12-25T02:29:30.928Z,8.30
2017-12-25T02:30:30.907Z,8.28
2017-12-25T02:31:30.985Z,8.34
2017-12-25T02:32:30.863Z,8.30
2017-12-25T02:33:30.842Z,8.33
2017-12-25T02:34:30.820Z,8.30
2017-12-25T02:35:30.800Z,8.24
2017-12-25T02:36:30.877Z,8.28
2017-12-25T02:37:30.756Z,8.30
2017-12-25T02:38:30.734Z,8.23
2017-12-25T02:39:30.712Z,8.30
2017-12-25T02:40:30.691Z,8.30
2017-12-25T02:41:30.822Z,8.28
2017-12-25T02:42:30.699Z,8.31
2017-12-25T02:43:30.626Z,8.24
2017-12-25T02:44:30.608Z,8.30
2017-12-25T02:45:30.583Z,8.23
2017-12-25T02:46:30.561Z,8.27
2017-12-25T02:47:30.539Z,8.36
2017-12-25T02:48:30.518Z,8.36
2017-12-25T02:49:30.499Z,8.36
2017-12-25T02:50:30.474Z,8.24
2017-12-25T02:51:30.452Z,8.27
2017-12-25T02:52:30.433Z,8.33
2017-12-25T02:53:30.409Z,8.36
2017-12-25T02:54:30.419Z,8.34
2017-12-25T02:55:30.367Z,8.38
2017-12-25T02:56:30.345Z,8.41
2017-12-25T02:57:30.323Z,8.36
2017-12-25T02:58:30.300Z,8.37
2017-12-25T02:59:30.281Z,8.31
2017-12-25T03:00:30.258Z,8.36
2017-12-25T03:01:30.237Z,8.30
2017-12-25T03:02:30.213Z,8.34
2017-12-25T03:03:30.193Z,8.33
2017-12-25T03:04:30.172Z,8.27
2017-12-25T03:05:30.150Z,8.33
2017-12-25T03:06:30.128Z,8.30
2017-12-25T03:07:30.106Z,8.27
2017-12-25T03:08:30.336Z,8.36
2017-12-25T03:09:30.064Z,8.28
2017-12-25T03:10:30.041Z,8.33
2017-12-25T03:11:30.020Z,8.36
2017-12-25T03:12:29.998Z,8.34
2017-12-25T03:13:29.976Z,8.37
2017-12-25T03:14:29.953Z,8.36
2017-12-25T03:15:29.936Z,8.41
2017-12-25T03:16:29.910Z,8.31
2017-12-25T03:17:29.889Z,8.37
2017-12-25T03:18:29.866Z,8.37
2017-12-25T03:19:29.844Z,8.38
2017-12-25T03:20:29.824Z,8.31
2017-12-25T03:21:29.801Z,8.34
2017-12-25T03:22:29.780Z,8.37
2017-12-25T03:23:29.758Z,8.33
2017-12-25T03:24:29.737Z,8.31
2017-12-25T03:25:29.716Z,8.30
2017-12-25T03:26:29.692Z,8.34
2017-12-25T03:27:29.674Z,8.37
2017-12-25T03:28:29.650Z,8.34
2017-12-25T03:29:29.629Z,8.26
2017-12-25T03:30:29.607Z,8.30
2017-12-25T03:31:29.584Z,8.37
2017-12-25T03:32:29.562Z,8.31
2017-12-25T03:33:29.544Z,8.36
2017-12-25T03:34:29.519Z,8.30
2017-12-25T03:35:29.499Z,8.33
2017-12-25T03:36:29.477Z,8.37
2017-12-25T03:37:29.456Z,8.36
2017-12-25T03:38:29.432Z,8.37
2017-12-25T03:39:29.412Z,8.34
2017-12-25T03:40:29.391Z,8.36
2017-12-25T03:41:29.368Z,8.36
2017-12-25T03:42:29.346Z,8.30
2017-12-25T03:43:29.325Z,8.36
2017-12-25T03:44:29.304Z,8.38
2017-12-25T03:45:29.283Z,8.36
2017-12-25T03:46:29.259Z,8.38
2017-12-25T03:47:29.239Z,8.36
2017-12-25T03:48:29.217Z,8.36
2017-12-25T03:49:29.195Z,8.41
2017-12-25T03:50:29.174Z,8.44
2017-12-25T03:51:29.151Z,8.42
2017-12-25T03:52:29.131Z,8.38
2017-12-25T03:53:29.108Z,8.31
2017-12-25T03:54:29.114Z,8.30
2017-12-25T03:55:29.067Z,8.34
2017-12-25T03:56:29.044Z,8.36
2017-12-25T03:57:29.022Z,8.30
2017-12-25T03:58:29.001Z,8.34
2017-12-25T03:59:28.979Z,8.33
2017-12-25T04:00:28.957Z,8.33
2017-12-25T04:01:28.936Z,8.33
2017-12-25T04:02:28.913Z,8.33
2017-12-25T04:03:28.891Z,8.33
2017-12-25T04:04:28.870Z,8.34
2017-12-25T04:05:28.850Z,8.37
2017-12-25T04:06:29.076Z,8.30
2017-12-25T04:07:28.804Z,8.48
2017-12-25T04:08:28.783Z,8.41
2017-12-25T04:09:28.761Z,8.41
2017-12-25T04:10:28.739Z,8.36
2017-12-25T04:11:28.718Z,8.37
2017-12-25T04:12:28.697Z,8.44
2017-12-25T04:13:28.675Z,8.33
2017-12-25T04:14:28.653Z,8.42
2017-12-25T04:15:28.631Z,8.41
2017-12-25T04:16:28.859Z,8.42
2017-12-25T04:17:28.587Z,8.37
2017-12-25T04:18:28.567Z,8.44
2017-12-25T04:19:28.545Z,8.41
2017-12-25T04:20:28.525Z,8.37
2017-12-25T04:21:28.501Z,8.42
2017-12-25T04:22:28.480Z,8.38
2017-12-25T04:23:28.908Z,8.38
2017-12-25T04:24:28.437Z,8.41
2017-12-25T04:25:28.416Z,8.37
2017-12-25T04:26:28.392Z,8.44
2017-12-25T04:27:28.370Z,8.44
2017-12-25T04:28:28.351Z,8.46
2017-12-25T04:29:28.332Z,8.44
2017-12-25T04:30:28.306Z,8.46
2017-12-25T04:31:28.287Z,8.46
2017-12-25T04:32:28.263Z,8.49
2017-12-25T04:33:28.241Z,8.45
2017-12-25T04:34:28.220Z,8.46
2017-12-25T04:35:28.197Z,8.45
2017-12-25T04:36:28.176Z,8.48
2017-12-25T04:37:28.155Z,8.44
2017-12-25T04:38:28.383Z,8.46
2017-12-25T04:39:28.111Z,8.48
2017-12-25T04:40:28.089Z,8.49
2017-12-25T04:41:28.068Z,8.48
2017-12-25T04:42:28.045Z,8.48
2017-12-25T04:43:28.024Z,8.46
2017-12-25T04:44:28.003Z,8.42
2017-12-25T04:45:27.980Z,8.36
2017-12-25T04:46:27.959Z,8.44
2017-12-25T04:47:27.938Z,8.31
2017-12-25T04:48:27.916Z,8.41
2017-12-25T04:49:28.046Z,8.44
2017-12-25T04:50:27.872Z,8.44
2017-12-25T04:51:27.851Z,8.42
2017-12-25T04:52:27.829Z,8.48
2017-12-25T04:53:27.807Z,8.45
2017-12-25T04:54:27.785Z,8.41
2017-12-25T04:55:27.765Z,8.44
2017-12-25T04:56:27.748Z,8.44
2017-12-25T04:57:27.722Z,8.45
2017-12-25T04:58:27.700Z,8.42
2017-12-25T04:59:27.679Z,8.44
2017-12-25T05:00:27.656Z,8.41
2017-12-25T05:01:27.636Z,8.36
2017-12-25T05:02:28.414Z,8.31
2017-12-25T05:03:27.592Z,8.30
2017-12-25T05:04:27.570Z,8.37
2017-12-25T05:05:27.548Z,8.36
2017-12-25T05:06:27.526Z,8.33
2017-12-25T05:07:27.609Z,8.34
2017-12-25T05:08:27.484Z,8.44
2017-12-25T05:09:27.463Z,8.46
2017-12-25T05:10:27.441Z,8.51
2017-12-25T05:11:27.419Z,8.49
2017-12-25T05:12:27.397Z,8.45
2017-12-25T05:13:27.377Z,8.49
2017-12-25T05:14:27.354Z,8.49
2017-12-25T05:15:27.332Z,8.46
2017-12-25T05:16:27.312Z,8.44
2017-12-25T05:17:27.289Z,8.49
2017-12-25T05:18:27.275Z,8.44
2017-12-25T05:19:27.246Z,8.45
2017-12-25T05:20:27.225Z,8.42
2017-12-25T05:21:27.455Z,8.38
2017-12-25T05:22:27.181Z,8.45
2017-12-25T05:23:27.159Z,8.42
2017-12-25T05:24:27.139Z,8.44
2017-12-25T05:25:27.117Z,8.37
2017-12-25T05:26:27.094Z,8.38
2017-12-25T05:27:27.072Z,8.42
2017-12-25T05:28:27.051Z,8.38
2017-12-25T05:29:27.030Z,8.42
2017-12-25T05:30:27.008Z,8.45
2017-12-25T05:31:27.137Z,8.46
2017-12-25T05:32:26.966Z,8.46
2017-12-25T05:33:26.944Z,8.41
2017-12-25T05:34:26.922Z,8.38
2017-12-25T05:35:26.906Z,8.42
2017-12-25T05:36:26.878Z,8.42
2017-12-25T05:37:26.857Z,8.38
2017-12-25T05:38:26.834Z,8.46
2017-12-25T05:39:26.913Z,8.48
2017-12-25T05:40:26.838Z,8.48
2017-12-25T05:41:26.771Z,8.44
2017-12-25T05:42:26.749Z,8.46
2017-12-25T05:43:26.727Z,8.51
2017-12-25T05:44:26.957Z,8.51
2017-12-25T05:45:26.685Z,8.52
2017-12-25T05:46:26.662Z,8.41
2017-12-25T05:47:26.640Z,8.46
2017-12-25T05:48:26.619Z,8.46
2017-12-25T05:49:26.747Z,8.55
2017-12-25T05:50:26.575Z,8.52
2017-12-25T05:51:26.555Z,8.55
2017-12-25T05:52:26.533Z,8.49
2017-12-25T05:53:26.511Z,8.52
2017-12-25T05:54:26.589Z,8.51
2017-12-25T05:55:26.467Z,8.48
2017-12-25T05:56:26.446Z,8.56
2017-12-25T05:57:26.424Z,8.45
2017-12-25T05:58:26.402Z,8.52
2017-12-25T05:59:26.381Z,8.44
2017-12-25T06:00:26.359Z,8.44
2017-12-25T06:01:26.338Z,8.45
2017-12-25T06:02:26.315Z,8.45
2017-12-25T06:03:26.594Z,8.44
2017-12-25T06:04:26.273Z,8.53
2017-12-25T06:05:26.250Z,8.55
2017-12-25T06:06:26.228Z,8.52
2017-12-25T06:07:26.208Z,8.56
2017-12-25T06:08:26.186Z,8.58
2017-12-25T06:09:26.166Z,8.56
2017-12-25T06:10:26.142Z,8.56
2017-12-25T06:11:26.121Z,8.46
2017-12-25T06:12:26.102Z,8.58
2017-12-25T06:13:26.077Z,8.49
2017-12-25T06:14:26.055Z,8.60
2017-12-25T06:15:26.283Z,8.53
2017-12-25T06:16:26.011Z,8.49
2017-12-25T06:17:25.990Z,8.55
2017-12-25T06:18:25.968Z,8.48
2017-12-25T06:19:25.952Z,8.51
2017-12-25T06:20:26.075Z,8.60
2017-12-25T06:21:25.903Z,8.55
2017-12-25T06:22:25.882Z,8.51
2017-12-25T06:23:25.860Z,8.55
2017-12-25T06:24:25.841Z,8.53
2017-12-25T06:25:25.817Z,8.56
2017-12-25T06:26:25.795Z,8.66
2017-12-25T06:27:25.773Z,8.64
2017-12-25T06:28:25.751Z,8.58
2017-12-25T06:29:25.730Z,8.66
2017-12-25T06:30:25.708Z,8.61
2017-12-25T06:31:25.837Z,8.64
2017-12-25T06:32:25.665Z,8.52
2017-12-25T06:33:25.645Z,8.52
2017-12-25T06:34:25.623Z,8.53
2017-12-25T06:35:25.601Z,8.46
2017-12-25T06:36:25.579Z,8.58
2017-12-25T06:37:25.557Z,8.51
2017-12-25T06:38:25.535Z,8.46
2017-12-25T06:39:25.517Z,8.51
2017-12-25T06:40:25.493Z,8.48
2017-12-25T06:41:25.470Z,8.48
2017-12-25T06:42:25.449Z,8.48
2017-12-25T06:43:25.430Z,8.49
2017-12-25T06:44:25.406Z,8.45
2017-12-25T06:45:25.384Z,8.42
2017-12-25T06:46:25.361Z,8.38
2017-12-25T06:47:25.641Z,8.42
2017-12-25T06:48:25.317Z,8.33
2017-12-25T06:49:25.305Z,8.41
2017-12-25T06:50:25.274Z,8.33
2017-12-25T06:51:25.252Z,8.30
2017-12-25T06:52:25.231Z,8.30
2017-12-25T06:53:25.211Z,8.28
2017-12-25T06:54:25.188Z,8.37
2017-12-25T06:55:25.167Z,8.30
2017-12-25T06:56:25.145Z,8.20
2017-12-25T06:57:25.373Z,8.27
2017-12-25T06:58:25.101Z,8.18
2017-12-25T06:59:25.079Z,8.16
2017-12-25T07:00:25.056Z,8.23
2017-12-25T07:01:25.035Z,8.20
2017-12-25T07:02:25.813Z,8.24
2017-12-25T07:03:24.993Z,8.23
2017-12-25T07:04:24.968Z,8.23
2017-12-25T07:05:24.948Z,8.15
2017-12-25T07:06:24.926Z,8.27
2017-12-25T07:07:25.004Z,8.23
2017-12-25T07:08:24.881Z,8.19
2017-12-25T07:09:24.860Z,8.15
2017-12-25T07:10:24.837Z,8.24
2017-12-25T07:11:24.816Z,8.12
2017-12-25T07:12:25.044Z,8.15
2017-12-25T07:13:24.772Z,8.06
2017-12-25T07:14:24.749Z,8.10
2017-12-25T07:15:24.726Z,8.06
2017-12-25T07:16:24.705Z,8.08
2017-12-25T07:17:24.683Z,8.08
2017-12-25T07:18:24.661Z,8.10
2017-12-25T07:19:24.639Z,8.08
2017-12-25T07:20:24.616Z,8.09
2017-12-25T07:21:24.594Z,8.08
2017-12-25T07:22:24.571Z,8.08
2017-12-25T07:23:24.553Z,8.08
2017-12-25T07:24:24.527Z,8.10
2017-12-25T07:25:24.506Z,8.03
2017-12-25T07:26:24.483Z,8.05
2017-12-25T07:27:24.462Z,8.06
2017-12-25T07:28:24.439Z,8.10
2017-12-25T07:29:24.418Z,8.03
2017-12-25T07:30:24.395Z,8.06
2017-12-25T07:31:24.374Z,8.05
2017-12-25T07:32:24.351Z,8.06
2017-12-25T07:33:24.330Z,8.09
2017-12-25T07:34:24.306Z,8.08
2017-12-25T07:35:24.284Z,8.03
2017-12-25T07:36:24.261Z,8.08
2017-12-25T07:37:24.240Z,7.98
2017-12-25T07:38:24.219Z,7.97
2017-12-25T07:39:24.195Z,8.01
2017-12-25T07:40:24.173Z,7.97
2017-12-25T07:41:24.152Z,7.98
2017-12-25T07:42:24.129Z,7.98
2017-12-25T07:43:24.107Z,7.98
2017-12-25T07:44:24.084Z,7.98
2017-12-25T07:45:24.068Z,7.97
2017-12-25T07:46:24.040Z,8.00
2017-12-25T07:47:24.019Z,7.98
2017-12-25T07:48:24.147Z,7.97
2017-12-25T07:49:23.975Z,8.01
2017-12-25T07:50:23.952Z,8.01
2017-12-25T07:51:23.929Z,8.01
2017-12-25T07:52:23.908Z,8.08
2017-12-25T07:53:23.885Z,8.01
2017-12-25T07:54:23.863Z,8.06
2017-12-25T07:55:23.842Z,8.00
2017-12-25T07:56:23.820Z,8.06
2017-12-25T07:57:23.798Z,8.08
2017-12-25T07:58:23.775Z,8.08
2017-12-25T07:59:23.753Z,8.10
2017-12-25T08:00:23.730Z,8.06
2017-12-25T08:01:23.709Z,8.06
2017-12-25T08:02:23.687Z,8.08
2017-12-25T08:03:23.663Z,8.08
2017-12-25T08:04:23.642Z,8.08
2017-12-25T08:05:23.619Z,8.08
2017-12-25T08:06:23.599Z,8.09
2017-12-25T08:07:23.581Z,8.05
2017-12-25T08:08:23.553Z,8.12
2017-12-25T08:09:23.533Z,8.10
2017-12-25T08:10:23.507Z,8.10
2017-12-25T08:11:23.486Z,8.12
2017-12-25T08:12:23.464Z,8.01
2017-12-25T08:13:23.447Z,8.08
2017-12-25T08:14:23.418Z,8.10
2017-12-25T08:15:23.396Z,8.08
2017-12-25T08:16:23.376Z,8.13
2017-12-25T08:17:23.353Z,8.10
2017-12-25T08:18:23.331Z,8.08
2017-12-25T08:19:23.308Z,8.13
2017-12-25T08:20:23.287Z,8.15
2017-12-25T08:21:23.265Z,8.15
2017-12-25T08:22:23.242Z,8.15
2017-12-25T08:23:23.220Z,8.10
2017-12-25T08:24:23.198Z,8.10
2017-12-25T08:25:23.177Z,8.10
2017-12-25T08:26:23.156Z,8.20
2017-12-25T08:27:23.133Z,8.13
2017-12-25T08:28:23.113Z,8.05
2017-12-25T08:29:23.088Z,8.13
2017-12-25T08:30:23.064Z,8.10
2017-12-25T08:31:23.043Z,8.08
2017-12-25T08:32:23.022Z,8.09
2017-12-25T08:33:22.999Z,8.13
2017-12-25T08:34:22.977Z,8.10
2017-12-25T08:35:22.956Z,8.05
2017-12-25T08:36:22.933Z,8.08
2017-12-25T08:37:22.962Z,8.20
2017-12-25T08:38:22.890Z,8.10
2017-12-25T08:39:22.868Z,8.13
2017-12-25T08:40:22.846Z,8.05
2017-12-25T08:41:22.824Z,8.15
2017-12-25T08:42:22.803Z,8.16
2017-12-25T08:43:22.781Z,8.19
2017-12-25T08:44:22.759Z,8.18
2017-12-25T08:45:22.736Z,8.12
2017-12-25T08:46:22.714Z,8.26
2017-12-25T08:47:22.692Z,8.19
2017-12-25T08:48:22.671Z,8.19
2017-12-25T08:49:22.650Z,8.15
2017-12-25T08:50:22.627Z,8.09
2017-12-25T08:51:22.608Z,8.20
2017-12-25T08:52:22.583Z,8.20
2017-12-25T08:53:22.561Z,8.18
2017-12-25T08:54:22.540Z,8.15
2017-12-25T08:55:22.518Z,8.24
2017-12-25T08:56:22.645Z,8.23
2017-12-25T08:57:22.475Z,8.13
2017-12-25T08:58:22.452Z,8.18
2017-12-25T08:59:22.431Z,8.23
2017-12-25T09:00:22.410Z,8.23
2017-12-25T09:01:22.388Z,8.19
2017-12-25T09:02:22.368Z,8.24
2017-12-25T09:03:22.344Z,8.19
2017-12-25T09:04:22.323Z,8.19
2017-12-25T09:05:22.551Z,8.24
2017-12-25T09:06:22.278Z,8.18
2017-12-25T09:07:22.257Z,8.23
2017-12-25T09:08:22.237Z,8.30
2017-12-25T09:09:22.215Z,8.33
2017-12-25T09:10:22.192Z,8.30
2017-12-25T09:11:22.170Z,8.34
2017-12-25T09:12:22.150Z,8.31
2017-12-25T09:13:22.128Z,8.33
2017-12-25T09:14:22.105Z,8.30
2017-12-25T09:15:22.083Z,8.27
2017-12-25T09:16:22.062Z,8.38
2017-12-25T09:17:22.041Z,8.34
2017-12-25T09:18:22.020Z,8.36
2017-12-25T09:19:21.998Z,8.34
2017-12-25T09:20:21.976Z,8.31
2017-12-25T09:21:21.954Z,8.36
2017-12-25T09:22:21.933Z,8.33
2017-12-25T09:23:21.911Z,8.30
2017-12-25T09:24:21.889Z,8.34
2017-12-25T09:25:21.867Z,8.31
2017-12-25T09:26:21.845Z,8.33
2017-12-25T09:27:22.073Z,8.36
2017-12-25T09:28:21.805Z,8.36
2017-12-25T09:29:21.782Z,8.42
2017-12-25T09:30:21.760Z,8.31
2017-12-25T09:31:21.737Z,8.34
2017-12-25T09:32:21.717Z,8.42
2017-12-25T09:33:21.695Z,8.36
2017-12-25T09:34:21.672Z,8.42
2017-12-25T09:35:21.651Z,8.42
2017-12-25T09:36:21.628Z,8.44
2017-12-25T09:37:21.608Z,8.44
2017-12-25T09:38:21.585Z,8.41
2017-12-25T09:39:21.565Z,8.33
2017-12-25T09:40:21.545Z,8.31
2017-12-25T09:41:21.522Z,8.41
2017-12-25T09:42:21.748Z,8.31
2017-12-25T09:43:21.478Z,8.31
2017-12-25T09:44:21.455Z,8.33
2017-12-25T09:45:21.436Z,8.27
2017-12-25T09:46:21.411Z,8.37
2017-12-25T09:47:21.391Z,8.41
2017-12-25T09:48:22.170Z,8.31
2017-12-25T09:49:21.348Z,8.36
2017-12-25T09:50:21.327Z,8.33
2017-12-25T09:51:21.305Z,8.37
2017-12-25T09:52:21.283Z,8.42
2017-12-25T09:53:21.262Z,8.42
2017-12-25T09:54:21.240Z,8.38
2017-12-25T09:55:21.218Z,8.44
2017-12-25T09:56:21.196Z,8.45
2017-12-25T09:57:21.175Z,8.42
2017-12-25T09:58:21.303Z,8.38
2017-12-25T09:59:21.130Z,8.44
2017-12-25T10:00:21.109Z,8.38
2017-12-25T10:01:21.089Z,8.44
2017-12-25T10:02:21.066Z,8.44
2017-12-25T10:03:21.046Z,8.36
2017-12-25T10:04:21.023Z,8.48
2017-12-25T10:05:21.002Z,8.44
2017-12-25T10:06:20.980Z,8.48
2017-12-25T10:07:20.959Z,8.42
2017-12-25T10:08:20.937Z,8.44
2017-12-25T10:09:20.916Z,8.46
2017-12-25T10:10:20.894Z,8.45
2017-12-25T10:11:20.872Z,8.44
2017-12-25T10:12:20.852Z,8.46
2017-12-25T10:13:20.930Z,8.46
2017-12-25T10:14:20.807Z,8.45
2017-12-25T10:15:20.792Z,8.49
2017-12-25T10:16:20.766Z,8.42
2017-12-25T10:17:20.746Z,8.49
2017-12-25T10:18:20.871Z,8.48
2017-12-25T10:19:20.700Z,8.46
2017-12-25T10:20:20.680Z,8.52
2017-12-25T10:21:20.658Z,8.48
2017-12-25T10:22:20.635Z,8.51
2017-12-25T10:23:21.415Z,8.51
2017-12-25T10:24:20.594Z,8.46
2017-12-25T10:25:20.571Z,8.58
2017-12-25T10:26:20.550Z,8.53
2017-12-25T10:27:20.530Z,8.51
2017-12-25T10:28:20.510Z,8.53
2017-12-25T10:29:20.485Z,8.51
2017-12-25T10:30:20.464Z,8.58
2017-12-25T10:31:20.442Z,8.58
2017-12-25T10:32:20.422Z,8.53
2017-12-25T10:33:20.401Z,8.53
2017-12-25T10:34:20.382Z,8.56
2017-12-25T10:35:21.159Z,8.52
2017-12-25T10:36:20.338Z,8.58
2017-12-25T10:37:20.316Z,8.53
2017-12-25T10:38:20.294Z,8.52
2017-12-25T10:39:20.273Z,8.55
2017-12-25T10:40:20.401Z,8.49
2017-12-25T10:41:20.229Z,8.45
2017-12-25T10:42:20.212Z,8.58
2017-12-25T10:43:20.187Z,8.51
2017-12-25T10:44:20.165Z,8.52
2017-12-25T10:45:20.144Z,8.45
2017-12-25T10:46:20.123Z,8.49
2017-12-25T10:47:20.100Z,8.49
2017-12-25T10:48:20.080Z,8.44
2017-12-25T10:49:20.060Z,8.52
2017-12-25T10:50:20.039Z,8.52
2017-12-25T10:51:20.015Z,8.52
2017-12-25T10:52:19.993Z,8.44
2017-12-25T10:53:19.973Z,8.44
2017-12-25T10:54:19.949Z,8.49
2017-12-25T10:55:19.929Z,8.46
2017-12-25T10:56:19.907Z,8.49
2017-12-25T10:57:19.889Z,8.49
2017-12-25T10:58:19.865Z,8.46
2017-12-25T10:59:19.843Z,8.49
2017-12-25T11:00:19.822Z,8.53
2017-12-25T11:01:19.802Z,8.49
2017-12-25T11:02:19.778Z,8.44
2017-12-25T11:03:19.757Z,8.46
2017-12-25T11:04:19.737Z,8.46
2017-12-25T11:05:19.715Z,8.49
2017-12-25T11:06:19.794Z,8.48
2017-12-25T11:07:19.672Z,8.44
2017-12-25T11:08:19.651Z,8.46
2017-12-25T11:09:19.629Z,8.46
2017-12-25T11:10:19.608Z,8.46
2017-12-25T11:11:19.686Z,8.44
2017-12-25T11:12:19.564Z,8.48
2017-12-25T11:13:19.542Z,8.46
2017-12-25T11:14:19.521Z,8.41
2017-12-25T11:15:19.500Z,8.48
2017-12-25T11:16:19.778Z,8.38
2017-12-25T11:17:19.457Z,8.36
2017-12-25T11:18:19.435Z,8.42
2017-12-25T11:19:19.413Z,8.38
2017-12-25T11:20:19.392Z,8.38
2017-12-25T11:21:19.370Z,8.38
2017-12-25T11:22:19.347Z,8.45
2017-12-25T11:23:19.327Z,8.46
2017-12-25T11:24:19.305Z,8.44
2017-12-25T11:25:19.284Z,8.49
2017-12-25T11:26:19.413Z,8.48
2017-12-25T11:27:19.241Z,8.48
2017-12-25T11:28:19.220Z,8.46
2017-12-25T11:29:19.199Z,8.42
2017-12-25T11:30:19.175Z,8.46
2017-12-25T11:31:19.405Z,8.53
2017-12-25T11:32:19.135Z,8.49
2017-12-25T11:33:19.112Z,8.53
2017-12-25T11:34:19.091Z,8.48
2017-12-25T11:35:19.068Z,8.53
2017-12-25T11:36:19.198Z,8.49
2017-12-25T11:37:19.025Z,8.51
2017-12-25T11:38:19.005Z,8.46
2017-12-25T11:39:18.983Z,8.46
2017-12-25T11:40:18.962Z,8.44
2017-12-25T11:41:18.941Z,8.45
2017-12-25T11:42:18.918Z,8.49
2017-12-25T11:43:18.900Z,8.49
2017-12-25T11:44:18.876Z,8.49
2017-12-25T11:45:18.857Z,8.46
2017-12-25T11:46:18.833Z,8.49
2017-12-25T11:47:18.811Z,8.51
2017-12-25T11:48:18.791Z,8.52
2017-12-25T11:49:18.776Z,8.51
2017-12-25T11:50:18.748Z,8.53
2017-12-25T11:51:18.737Z,8.52
2017-12-25T11:52:18.705Z,8.60
2017-12-25T11:53:18.685Z,8.51
2017-12-25T11:54:18.662Z,8.53
2017-12-25T11:55:18.641Z,8.52
2017-12-25T11:56:18.619Z,8.55
2017-12-25T11:57:18.598Z,8.56
2017-12-25T11:58:18.577Z,8.56
2017-12-25T11:59:18.555Z,8.51
2017-12-25T12:00:18.685Z,8.56
2017-12-25T12:01:18.516Z,8.51
2017-12-25T12:02:18.491Z,8.51
2017-12-25T12:03:18.470Z,8.53
2017-12-25T12:04:18.452Z,8.53
2017-12-25T12:05:18.432Z,8.48
2017-12-25T12:06:18.405Z,8.49
2017-12-25T12:07:18.384Z,8.45
2017-12-25T12:08:18.363Z,8.46
2017-12-25T12:09:18.374Z,8.46
2017-12-25T12:10:18.871Z,8.52
2017-12-25T12:11:18.298Z,8.46
2017-12-25T12:12:18.277Z,8.52
2017-12-25T12:13:18.256Z,8.51
2017-12-25T12:14:18.234Z,8.56
2017-12-25T12:15:18.214Z,8.52
2017-12-25T12:16:18.195Z,8.52
2017-12-25T12:17:18.171Z,8.52
2017-12-25T12:18:18.150Z,8.52
2017-12-25T12:19:18.128Z,8.61
2017-12-25T12:20:18.108Z,8.53
2017-12-25T12:21:18.086Z,8.49
2017-12-25T12:22:18.065Z,8.44
2017-12-25T12:23:18.043Z,8.51
2017-12-25T12:24:18.022Z,8.53
2017-12-25T12:25:18.253Z,8.49
2017-12-25T12:26:17.988Z,8.46
2017-12-25T12:27:17.959Z,8.48
2017-12-25T12:28:17.938Z,8.55
2017-12-25T12:29:17.916Z,8.60
2017-12-25T12:30:18.145Z,8.55
2017-12-25T12:31:17.873Z,8.52
2017-12-25T12:32:17.854Z,8.46
2017-12-25T12:33:17.832Z,8.55
2017-12-25T12:34:17.809Z,8.52
2017-12-25T12:35:17.789Z,8.49
2017-12-25T12:36:17.767Z,8.55
2017-12-25T12:37:17.747Z,8.56
2017-12-25T12:38:17.724Z,8.58
2017-12-25T12:39:17.701Z,8.51
2017-12-25T12:40:18.483Z,8.60
2017-12-25T12:41:17.661Z,8.55
2017-12-25T12:42:17.637Z,8.49
2017-12-25T12:43:17.617Z,8.51
2017-12-25T12:44:17.595Z,8.52
2017-12-25T12:45:17.573Z,8.51
2017-12-25T12:46:17.652Z,8.51
2017-12-25T12:47:17.530Z,8.55
2017-12-25T12:48:17.510Z,8.46
2017-12-25T12:49:17.488Z,8.53
2017-12-25T12:50:17.467Z,8.49
2017-12-25T12:51:17.445Z,8.49
2017-12-25T12:52:17.424Z,8.49
2017-12-25T12:53:17.403Z,8.58
2017-12-25T12:54:17.380Z,8.52
2017-12-25T12:55:17.360Z,8.53
2017-12-25T12:56:17.339Z,8.52
2017-12-25T12:57:17.317Z,8.46
2017-12-25T12:58:17.295Z,8.48
2017-12-25T12:59:17.525Z,8.49
2017-12-25T13:00:17.256Z,8.46
2017-12-25T13:01:17.233Z,8.45
2017-12-25T13:02:17.210Z,8.49
2017-12-25T13:03:17.189Z,8.60
2017-12-25T13:04:17.167Z,8.58
2017-12-25T13:05:17.146Z,8.48
2017-12-25T13:06:17.125Z,8.60
2017-12-25T13:07:17.103Z,8.45
2017-12-25T13:08:17.082Z,8.55
2017-12-25T13:09:17.312Z,8.55
2017-12-25T13:10:17.039Z,8.49
2017-12-25T13:11:17.020Z,8.53
2017-12-25T13:12:16.997Z,8.51
2017-12-25T13:13:16.977Z,8.44
2017-12-25T13:14:17.206Z,8.51
2017-12-25T13:15:16.934Z,8.46
2017-12-25T13:16:16.913Z,8.51
2017-12-25T13:17:16.890Z,8.46
2017-12-25T13:18:16.920Z,8.44